sensor_id;sensor_type;location;lat;lon;timestamp;P1;durP1;ratioP1;P2;durP2;ratioP2
60233;SDS011;49514;43.538;-5.708;2023-03-01T00:01:32;2.80;;;0.90;;
60233;SDS011;49514;43.538;-5.708;2023-03-01T00:03:58;4.97;;;1.40;;
60233;SDS011;49514;43.538;-5.708;2023-03-01T00:06:26;4.63;;;1.17;;
60233;SDS011;49514;43.538;-5.708;2023-03-01T00:08:53;1.60;;;0.95;;
60233;SDS011;49514;43.538;-5.708;2023-03-01T00:11:22;1.48;;;0.80;;
60233;SDS011;49514;43.538;-5.708;2023-03-01T00:13:51;3.72;;;1.05;;
60233;SDS011;49514;43.538;-5.708;2023-03-01T00:16:41;2.97;;;1.05;;
60233;SDS011;49514;43.538;-5.708;2023-03-01T00:19:09;3.10;;;1.20;;
60233;SDS011;49514;43.538;-5.708;2023-03-01T00:21:45;2.80;;;0.80;;
60233;SDS011;49514;43.538;-5.708;2023-03-01T00:24:12;2.92;;;0.93;;
60233;SDS011;49514;43.538;-5.708;2023-03-01T00:26:40;3.50;;;1.05;;
60233;SDS011;49514;43.538;-5.708;2023-03-01T00:29:07;2.33;;;0.90;;
60233;SDS011;49514;43.538;-5.708;2023-03-01T00:31:36;1.27;;;0.85;;
60233;SDS011;49514;43.538;-5.708;2023-03-01T00:34:03;3.05;;;1.02;;
60233;SDS011;49514;43.538;-5.708;2023-03-01T00:36:33;3.65;;;1.35;;
60233;SDS011;49514;43.538;-5.708;2023-03-01T00:39:02;4.75;;;1.00;;
60233;SDS011;49514;43.538;-5.708;2023-03-01T00:41:30;1.90;;;1.17;;
60233;SDS011;49514;43.538;-5.708;2023-03-01T00:43:59;2.97;;;1.23;;
60233;SDS011;49514;43.538;-5.708;2023-03-01T00:46:26;8.35;;;0.95;;
60233;SDS011;49514;43.538;-5.708;2023-03-01T00:48:55;3.83;;;1.10;;
60233;SDS011;49514;43.538;-5.708;2023-03-01T00:51:23;3.92;;;1.15;;
60233;SDS011;49514;43.538;-5.708;2023-03-01T00:53:57;2.65;;;1.10;;
60233;SDS011;49514;43.538;-5.708;2023-03-01T00:56:26;4.00;;;1.10;;
60233;SDS011;49514;43.538;-5.708;2023-03-01T00:58:53;5.53;;;1.58;;
60233;SDS011;49514;43.538;-5.708;2023-03-01T01:01:22;3.50;;;0.95;;
60233;SDS011;49514;43.538;-5.708;2023-03-01T01:03:51;3.75;;;1.20;;
60233;SDS011;49514;43.538;-5.708;2023-03-01T01:06:26;4.22;;;1.13;;
60233;SDS011;49514;43.538;-5.708;2023-03-01T01:08:58;3.47;;;1.08;;
60233;SDS011;49514;43.538;-5.708;2023-03-01T01:11:25;1.98;;;0.85;;
60233;SDS011;49514;43.538;-5.708;2023-03-01T01:13:53;3.95;;;1.02;;
60233;SDS011;49514;43.538;-5.708;2023-03-01T01:16:22;3.22;;;1.10;;
60233;SDS011;49514;43.538;-5.708;2023-03-01T01:18:50;3.13;;;1.08;;
60233;SDS011;49514;43.538;-5.708;2023-03-01T01:21:19;3.58;;;1.20;;
60233;SDS011;49514;43.538;-5.708;2023-03-01T01:23:48;4.30;;;1.55;;
60233;SDS011;49514;43.538;-5.708;2023-03-01T01:26:17;1.92;;;1.20;;
60233;SDS011;49514;43.538;-5.708;2023-03-01T01:28:45;1.67;;;1.10;;
60233;SDS011;49514;43.538;-5.708;2023-03-01T01:31:12;5.22;;;1.25;;
60233;SDS011;49514;43.538;-5.708;2023-03-01T01:33:38;4.55;;;1.25;;
60233;SDS011;49514;43.538;-5.708;2023-03-01T01:36:06;4.03;;;1.02;;
60233;SDS011;49514;43.538;-5.708;2023-03-01T01:38:33;7.60;;;1.98;;
60233;SDS011;49514;43.538;-5.708;2023-03-01T01:41:00;9.60;;;3.15;;
60233;SDS011;49514;43.538;-5.708;2023-03-01T01:43:28;11.52;;;4.35;;
60233;SDS011;49514;43.538;-5.708;2023-03-01T01:45:59;13.73;;;4.82;;
60233;SDS011;49514;43.538;-5.708;2023-03-01T01:48:29;10.43;;;4.38;;
60233;SDS011;49514;43.538;-5.708;2023-03-01T01:51:06;14.38;;;4.13;;
60233;SDS011;49514;43.538;-5.708;2023-03-01T01:53:38;8.90;;;4.38;;
60233;SDS011;49514;43.538;-5.708;2023-03-01T01:56:06;10.77;;;3.83;;
60233;SDS011;49514;43.538;-5.708;2023-03-01T01:58:34;9.55;;;3.17;;
60233;SDS011;49514;43.538;-5.708;2023-03-01T02:01:03;6.22;;;2.28;;
60233;SDS011;49514;43.538;-5.708;2023-03-01T02:03:31;3.97;;;2.22;;
60233;SDS011;49514;43.538;-5.708;2023-03-01T02:06:04;4.30;;;2.30;;
60233;SDS011;49514;43.538;-5.708;2023-03-01T02:08:45;9.00;;;2.17;;
60233;SDS011;49514;43.538;-5.708;2023-03-01T02:11:14;4.53;;;1.73;;
60233;SDS011;49514;43.538;-5.708;2023-03-01T02:13:43;6.57;;;2.65;;
60233;SDS011;49514;43.538;-5.708;2023-03-01T02:16:11;7.50;;;2.95;;
60233;SDS011;49514;43.538;-5.708;2023-03-01T02:18:40;9.70;;;3.10;;
60233;SDS011;49514;43.538;-5.708;2023-03-01T02:21:11;10.02;;;3.28;;
60233;SDS011;49514;43.538;-5.708;2023-03-01T02:23:44;7.57;;;3.05;;
60233;SDS011;49514;43.538;-5.708;2023-03-01T02:28:53;7.63;;;2.63;;
60233;SDS011;49514;43.538;-5.708;2023-03-01T02:31:20;7.65;;;2.80;;
60233;SDS011;49514;43.538;-5.708;2023-03-01T02:34:06;11.93;;;3.22;;
60233;SDS011;49514;43.538;-5.708;2023-03-01T02:36:36;10.38;;;3.35;;
60233;SDS011;49514;43.538;-5.708;2023-03-01T02:39:18;9.57;;;3.03;;
60233;SDS011;49514;43.538;-5.708;2023-03-01T02:41:53;8.43;;;3.20;;
60233;SDS011;49514;43.538;-5.708;2023-03-01T02:44:22;9.10;;;3.28;;
60233;SDS011;49514;43.538;-5.708;2023-03-01T02:46:51;6.45;;;3.45;;
60233;SDS011;49514;43.538;-5.708;2023-03-01T02:49:26;7.35;;;3.22;;
60233;SDS011;49514;43.538;-5.708;2023-03-01T02:57:16;8.32;;;3.67;;
60233;SDS011;49514;43.538;-5.708;2023-03-01T02:59:45;8.25;;;3.88;;
60233;SDS011;49514;43.538;-5.708;2023-03-01T03:02:18;7.20;;;3.90;;
60233;SDS011;49514;43.538;-5.708;2023-03-01T03:07:59;7.03;;;4.53;;
60233;SDS011;49514;43.538;-5.708;2023-03-01T03:10:29;7.18;;;4.00;;
60233;SDS011;49514;43.538;-5.708;2023-03-01T03:13:08;7.10;;;4.45;;
60233;SDS011;49514;43.538;-5.708;2023-03-01T03:15:38;6.53;;;4.13;;
60233;SDS011;49514;43.538;-5.708;2023-03-01T03:21:47;11.23;;;4.40;;
60233;SDS011;49514;43.538;-5.708;2023-03-01T03:24:15;9.38;;;3.90;;
60233;SDS011;49514;43.538;-5.708;2023-03-01T03:26:43;8.68;;;3.63;;
60233;SDS011;49514;43.538;-5.708;2023-03-01T03:29:09;12.40;;;4.25;;
60233;SDS011;49514;43.538;-5.708;2023-03-01T03:31:36;8.98;;;4.03;;
60233;SDS011;49514;43.538;-5.708;2023-03-01T03:34:03;8.70;;;4.13;;
60233;SDS011;49514;43.538;-5.708;2023-03-01T03:36:29;11.07;;;4.32;;
60233;SDS011;49514;43.538;-5.708;2023-03-01T03:38:56;10.48;;;4.25;;
60233;SDS011;49514;43.538;-5.708;2023-03-01T03:41:23;9.07;;;3.83;;
60233;SDS011;49514;43.538;-5.708;2023-03-01T03:43:49;16.42;;;4.40;;
60233;SDS011;49514;43.538;-5.708;2023-03-01T03:46:16;12.95;;;4.63;;
60233;SDS011;49514;43.538;-5.708;2023-03-01T03:48:43;12.50;;;4.55;;
60233;SDS011;49514;43.538;-5.708;2023-03-01T03:51:15;5.82;;;4.00;;
60233;SDS011;49514;43.538;-5.708;2023-03-01T03:53:44;10.65;;;4.10;;
60233;SDS011;49514;43.538;-5.708;2023-03-01T03:56:11;8.98;;;4.00;;
60233;SDS011;49514;43.538;-5.708;2023-03-01T03:58:38;13.38;;;4.43;;
60233;SDS011;49514;43.538;-5.708;2023-03-01T04:01:06;7.35;;;4.50;;
60233;SDS011;49514;43.538;-5.708;2023-03-01T04:03:33;8.70;;;4.45;;
60233;SDS011;49514;43.538;-5.708;2023-03-01T04:06:00;9.07;;;4.43;;
60233;SDS011;49514;43.538;-5.708;2023-03-01T04:08:28;13.48;;;4.78;;
60233;SDS011;49514;43.538;-5.708;2023-03-01T04:10:59;10.50;;;4.18;;
60233;SDS011;49514;43.538;-5.708;2023-03-01T04:13:47;12.50;;;4.50;;
60233;SDS011;49514;43.538;-5.708;2023-03-01T04:16:14;6.95;;;4.15;;
60233;SDS011;49514;43.538;-5.708;2023-03-01T04:18:40;7.85;;;4.32;;
60233;SDS011;49514;43.538;-5.708;2023-03-01T04:21:07;9.70;;;4.43;;
60233;SDS011;49514;43.538;-5.708;2023-03-01T04:23:34;7.30;;;3.97;;
60233;SDS011;49514;43.538;-5.708;2023-03-01T04:26:01;9.07;;;4.25;;
60233;SDS011;49514;43.538;-5.708;2023-03-01T04:28:29;10.35;;;4.45;;
60233;SDS011;49514;43.538;-5.708;2023-03-01T04:31:11;8.98;;;4.57;;
60233;SDS011;49514;43.538;-5.708;2023-03-01T04:33:45;12.75;;;4.78;;
60233;SDS011;49514;43.538;-5.708;2023-03-01T04:36:13;10.82;;;4.70;;
60233;SDS011;49514;43.538;-5.708;2023-03-01T04:38:43;11.65;;;4.88;;
60233;SDS011;49514;43.538;-5.708;2023-03-01T04:41:14;9.43;;;4.07;;
60233;SDS011;49514;43.538;-5.708;2023-03-01T04:43:41;7.47;;;3.83;;
60233;SDS011;49514;43.538;-5.708;2023-03-01T04:46:09;10.25;;;4.68;;
60233;SDS011;49514;43.538;-5.708;2023-03-01T04:48:39;7.85;;;4.38;;
60233;SDS011;49514;43.538;-5.708;2023-03-01T04:51:06;10.52;;;4.00;;
60233;SDS011;49514;43.538;-5.708;2023-03-01T04:53:34;9.30;;;4.30;;
60233;SDS011;49514;43.538;-5.708;2023-03-01T04:56:04;10.23;;;4.97;;
60233;SDS011;49514;43.538;-5.708;2023-03-01T04:58:32;12.00;;;4.25;;
60233;SDS011;49514;43.538;-5.708;2023-03-01T05:00:58;5.53;;;3.58;;
60233;SDS011;49514;43.538;-5.708;2023-03-01T05:03:25;9.82;;;4.18;;
60233;SDS011;49514;43.538;-5.708;2023-03-01T05:05:53;6.80;;;3.90;;
60233;SDS011;49514;43.538;-5.708;2023-03-01T05:08:20;8.23;;;3.60;;
60233;SDS011;49514;43.538;-5.708;2023-03-01T05:10:51;7.07;;;4.43;;
60233;SDS011;49514;43.538;-5.708;2023-03-01T05:13:19;8.10;;;4.15;;
60233;SDS011;49514;43.538;-5.708;2023-03-01T05:15:53;8.90;;;3.95;;
60233;SDS011;49514;43.538;-5.708;2023-03-01T05:18:20;6.65;;;3.60;;
60233;SDS011;49514;43.538;-5.708;2023-03-01T05:20:52;7.05;;;3.33;;
60233;SDS011;49514;43.538;-5.708;2023-03-01T05:23:22;9.30;;;4.10;;
60233;SDS011;49514;43.538;-5.708;2023-03-01T05:25:49;8.23;;;3.55;;
60233;SDS011;49514;43.538;-5.708;2023-03-01T05:28:18;5.20;;;3.22;;
60233;SDS011;49514;43.538;-5.708;2023-03-01T05:30:46;4.90;;;3.33;;
60233;SDS011;49514;43.538;-5.708;2023-03-01T05:33:13;7.55;;;3.65;;
60233;SDS011;49514;43.538;-5.708;2023-03-01T05:35:40;7.22;;;3.72;;
60233;SDS011;49514;43.538;-5.708;2023-03-01T05:38:08;8.70;;;3.70;;
60233;SDS011;49514;43.538;-5.708;2023-03-01T05:40:40;6.57;;;3.83;;
60233;SDS011;49514;43.538;-5.708;2023-03-01T05:43:12;7.00;;;3.65;;
60233;SDS011;49514;43.538;-5.708;2023-03-01T05:45:40;9.20;;;3.55;;
60233;SDS011;49514;43.538;-5.708;2023-03-01T05:50:36;5.97;;;3.60;;
60233;SDS011;49514;43.538;-5.708;2023-03-01T05:53:12;8.20;;;3.58;;
60233;SDS011;49514;43.538;-5.708;2023-03-01T05:55:43;5.82;;;3.60;;
60233;SDS011;49514;43.538;-5.708;2023-03-01T05:58:14;9.93;;;3.63;;
60233;SDS011;49514;43.538;-5.708;2023-03-01T06:00:43;6.85;;;3.35;;
60233;SDS011;49514;43.538;-5.708;2023-03-01T06:03:12;5.28;;;3.08;;
60233;SDS011;49514;43.538;-5.708;2023-03-01T06:05:40;7.72;;;3.42;;
60233;SDS011;49514;43.538;-5.708;2023-03-01T06:08:08;7.88;;;3.20;;
60233;SDS011;49514;43.538;-5.708;2023-03-01T06:10:36;7.20;;;3.10;;
60233;SDS011;49514;43.538;-5.708;2023-03-01T06:13:03;6.47;;;3.25;;
60233;SDS011;49514;43.538;-5.708;2023-03-01T06:15:30;12.02;;;3.45;;
60233;SDS011;49514;43.538;-5.708;2023-03-01T06:17:56;7.82;;;3.20;;
60233;SDS011;49514;43.538;-5.708;2023-03-01T06:20:24;5.80;;;2.78;;
60233;SDS011;49514;43.538;-5.708;2023-03-01T06:22:53;11.48;;;3.45;;
60233;SDS011;49514;43.538;-5.708;2023-03-01T06:25:20;13.13;;;3.50;;
60233;SDS011;49514;43.538;-5.708;2023-03-01T06:27:48;14.75;;;3.60;;
60233;SDS011;49514;43.538;-5.708;2023-03-01T06:30:17;15.30;;;3.65;;
60233;SDS011;49514;43.538;-5.708;2023-03-01T06:32:45;14.98;;;4.35;;
60233;SDS011;49514;43.538;-5.708;2023-03-01T06:35:13;10.18;;;4.78;;
60233;SDS011;49514;43.538;-5.708;2023-03-01T06:37:43;12.48;;;4.22;;
60233;SDS011;49514;43.538;-5.708;2023-03-01T06:40:11;15.18;;;3.78;;
60233;SDS011;49514;43.538;-5.708;2023-03-01T06:42:40;16.88;;;3.88;;
60233;SDS011;49514;43.538;-5.708;2023-03-01T06:45:08;12.25;;;4.07;;
60233;SDS011;49514;43.538;-5.708;2023-03-01T06:47:36;7.25;;;3.55;;
60233;SDS011;49514;43.538;-5.708;2023-03-01T06:50:03;15.38;;;4.00;;
60233;SDS011;49514;43.538;-5.708;2023-03-01T06:52:29;15.30;;;4.53;;
60233;SDS011;49514;43.538;-5.708;2023-03-01T06:54:56;5.78;;;3.05;;
60233;SDS011;49514;43.538;-5.708;2023-03-01T06:57:23;10.52;;;2.92;;
60233;SDS011;49514;43.538;-5.708;2023-03-01T06:59:50;7.95;;;3.13;;
60233;SDS011;49514;43.538;-5.708;2023-03-01T07:02:17;9.82;;;3.05;;
60233;SDS011;49514;43.538;-5.708;2023-03-01T07:04:44;10.15;;;3.70;;
60233;SDS011;49514;43.538;-5.708;2023-03-01T07:07:10;4.68;;;2.90;;
60233;SDS011;49514;43.538;-5.708;2023-03-01T07:09:37;6.28;;;2.97;;
60233;SDS011;49514;43.538;-5.708;2023-03-01T07:12:04;8.07;;;4.10;;
60233;SDS011;49514;43.538;-5.708;2023-03-01T07:14:31;8.65;;;3.90;;
60233;SDS011;49514;43.538;-5.708;2023-03-01T07:16:58;10.02;;;4.30;;
60233;SDS011;49514;43.538;-5.708;2023-03-01T07:19:26;7.18;;;3.88;;
60233;SDS011;49514;43.538;-5.708;2023-03-01T07:21:53;8.65;;;3.35;;
60233;SDS011;49514;43.538;-5.708;2023-03-01T07:24:22;9.05;;;2.90;;
60233;SDS011;49514;43.538;-5.708;2023-03-01T07:26:49;6.50;;;3.25;;
60233;SDS011;49514;43.538;-5.708;2023-03-01T07:29:17;8.07;;;3.10;;
60233;SDS011;49514;43.538;-5.708;2023-03-01T07:31:44;7.90;;;3.40;;
60233;SDS011;49514;43.538;-5.708;2023-03-01T07:34:11;6.63;;;3.15;;
60233;SDS011;49514;43.538;-5.708;2023-03-01T07:36:38;8.80;;;2.75;;
60233;SDS011;49514;43.538;-5.708;2023-03-01T07:39:05;5.80;;;2.20;;
60233;SDS011;49514;43.538;-5.708;2023-03-01T07:41:32;4.35;;;1.70;;
60233;SDS011;49514;43.538;-5.708;2023-03-01T07:43:58;9.73;;;2.67;;
60233;SDS011;49514;43.538;-5.708;2023-03-01T07:46:25;16.25;;;3.78;;
60233;SDS011;49514;43.538;-5.708;2023-03-01T07:48:52;10.73;;;2.65;;
60233;SDS011;49514;43.538;-5.708;2023-03-01T07:51:19;13.23;;;3.10;;
60233;SDS011;49514;43.538;-5.708;2023-03-01T07:53:46;6.20;;;1.58;;
60233;SDS011;49514;43.538;-5.708;2023-03-01T07:56:14;13.13;;;2.38;;
60233;SDS011;49514;43.538;-5.708;2023-03-01T07:58:43;7.65;;;1.90;;
60233;SDS011;49514;43.538;-5.708;2023-03-01T08:01:12;14.15;;;2.38;;
60233;SDS011;49514;43.538;-5.708;2023-03-01T08:03:42;13.52;;;3.05;;
60233;SDS011;49514;43.538;-5.708;2023-03-01T08:06:10;14.35;;;2.80;;
60233;SDS011;49514;43.538;-5.708;2023-03-01T08:08:38;11.50;;;3.13;;
60233;SDS011;49514;43.538;-5.708;2023-03-01T08:11:06;20.58;;;5.82;;
60233;SDS011;49514;43.538;-5.708;2023-03-01T08:13:33;10.98;;;4.18;;
60233;SDS011;49514;43.538;-5.708;2023-03-01T08:16:04;12.43;;;6.30;;
60233;SDS011;49514;43.538;-5.708;2023-03-01T08:18:36;7.85;;;4.00;;
60233;SDS011;49514;43.538;-5.708;2023-03-01T08:21:04;6.25;;;2.65;;
60233;SDS011;49514;43.538;-5.708;2023-03-01T08:23:35;3.53;;;2.20;;
60233;SDS011;49514;43.538;-5.708;2023-03-01T08:28:34;6.25;;;2.63;;
60233;SDS011;49514;43.538;-5.708;2023-03-01T08:31:01;5.80;;;2.10;;
60233;SDS011;49514;43.538;-5.708;2023-03-01T08:33:28;3.95;;;2.28;;
60233;SDS011;49514;43.538;-5.708;2023-03-01T08:36:02;5.18;;;2.17;;
60233;SDS011;49514;43.538;-5.708;2023-03-01T08:40:58;8.40;;;2.55;;
60233;SDS011;49514;43.538;-5.708;2023-03-01T08:43:26;6.63;;;1.92;;
60233;SDS011;49514;43.538;-5.708;2023-03-01T08:45:53;5.53;;;1.98;;
60233;SDS011;49514;43.538;-5.708;2023-03-01T08:48:20;8.27;;;3.08;;
60233;SDS011;49514;43.538;-5.708;2023-03-01T08:50:46;7.68;;;2.63;;
60233;SDS011;49514;43.538;-5.708;2023-03-01T08:53:13;10.38;;;2.40;;
60233;SDS011;49514;43.538;-5.708;2023-03-01T08:55:40;5.65;;;2.47;;
60233;SDS011;49514;43.538;-5.708;2023-03-01T08:58:06;9.73;;;4.00;;
60233;SDS011;49514;43.538;-5.708;2023-03-01T09:00:33;8.43;;;3.33;;
60233;SDS011;49514;43.538;-5.708;2023-03-01T09:03:00;9.02;;;3.78;;
60233;SDS011;49514;43.538;-5.708;2023-03-01T09:05:30;9.32;;;2.60;;
60233;SDS011;49514;43.538;-5.708;2023-03-01T09:07:58;11.77;;;3.20;;
60233;SDS011;49514;43.538;-5.708;2023-03-01T09:10:24;5.45;;;2.83;;
60233;SDS011;49514;43.538;-5.708;2023-03-01T09:12:51;7.13;;;3.33;;
60233;SDS011;49514;43.538;-5.708;2023-03-01T09:15:18;10.05;;;4.30;;
60233;SDS011;49514;43.538;-5.708;2023-03-01T09:17:45;9.18;;;4.40;;
60233;SDS011;49514;43.538;-5.708;2023-03-01T09:20:12;7.68;;;3.63;;
60233;SDS011;49514;43.538;-5.708;2023-03-01T09:22:39;12.75;;;4.25;;
60233;SDS011;49514;43.538;-5.708;2023-03-01T09:25:06;18.27;;;5.28;;
60233;SDS011;49514;43.538;-5.708;2023-03-01T09:27:33;14.70;;;6.30;;
60233;SDS011;49514;43.538;-5.708;2023-03-01T09:30:00;19.95;;;5.93;;
60233;SDS011;49514;43.538;-5.708;2023-03-01T09:32:26;7.47;;;3.85;;
60233;SDS011;49514;43.538;-5.708;2023-03-01T09:34:55;12.70;;;5.18;;
60233;SDS011;49514;43.538;-5.708;2023-03-01T09:39:58;7.82;;;3.90;;
60233;SDS011;49514;43.538;-5.708;2023-03-01T09:42:24;7.28;;;3.17;;
60233;SDS011;49514;43.538;-5.708;2023-03-01T09:44:54;12.20;;;3.50;;
60233;SDS011;49514;43.538;-5.708;2023-03-01T09:47:24;8.40;;;2.55;;
60233;SDS011;49514;43.538;-5.708;2023-03-01T09:52:38;4.40;;;2.30;;
60233;SDS011;49514;43.538;-5.708;2023-03-01T09:55:12;3.80;;;1.97;;
60233;SDS011;49514;43.538;-5.708;2023-03-01T09:57:49;3.88;;;2.20;;
60233;SDS011;49514;43.538;-5.708;2023-03-01T10:00:24;4.55;;;2.25;;
60233;SDS011;49514;43.538;-5.708;2023-03-01T10:08:40;5.75;;;2.30;;
60233;SDS011;49514;43.538;-5.708;2023-03-01T10:11:21;10.80;;;3.33;;
60233;SDS011;49514;43.538;-5.708;2023-03-01T10:19:31;2.63;;;1.88;;
60233;SDS011;49514;43.538;-5.708;2023-03-01T10:22:11;3.70;;;1.98;;
60233;SDS011;49514;43.538;-5.708;2023-03-01T10:24:39;6.90;;;2.20;;
60233;SDS011;49514;43.538;-5.708;2023-03-01T10:27:13;6.05;;;2.08;;
60233;SDS011;49514;43.538;-5.708;2023-03-01T10:32:32;17.40;;;7.50;;
60233;SDS011;49514;43.538;-5.708;2023-03-01T10:34:59;12.65;;;6.72;;
60233;SDS011;49514;43.538;-5.708;2023-03-01T10:37:26;8.48;;;4.65;;
60233;SDS011;49514;43.538;-5.708;2023-03-01T10:42:46;6.70;;;2.80;;
60233;SDS011;49514;43.538;-5.708;2023-03-01T10:45:15;4.63;;;2.30;;
60233;SDS011;49514;43.538;-5.708;2023-03-01T10:50:34;14.82;;;4.22;;
60233;SDS011;49514;43.538;-5.708;2023-03-01T10:53:04;5.35;;;2.30;;
60233;SDS011;49514;43.538;-5.708;2023-03-01T10:55:33;3.75;;;2.22;;
60233;SDS011;49514;43.538;-5.708;2023-03-01T11:00:47;3.53;;;1.33;;
60233;SDS011;49514;43.538;-5.708;2023-03-01T11:13:30;4.80;;;1.70;;
60233;SDS011;49514;43.538;-5.708;2023-03-01T11:16:06;6.60;;;1.85;;
60233;SDS011;49514;43.538;-5.708;2023-03-01T11:18:37;1.95;;;1.65;;
60233;SDS011;49514;43.538;-5.708;2023-03-01T11:21:05;4.90;;;1.90;;
60233;SDS011;49514;43.538;-5.708;2023-03-01T11:23:34;4.40;;;2.05;;
60233;SDS011;49514;43.538;-5.708;2023-03-01T11:28:35;3.13;;;2.05;;
60233;SDS011;49514;43.538;-5.708;2023-03-01T11:31:09;3.33;;;2.20;;
60233;SDS011;49514;43.538;-5.708;2023-03-01T11:33:47;4.13;;;2.28;;
60233;SDS011;49514;43.538;-5.708;2023-03-01T11:36:32;7.82;;;2.13;;
60233;SDS011;49514;43.538;-5.708;2023-03-01T11:42:05;2.85;;;2.15;;
60233;SDS011;49514;43.538;-5.708;2023-03-01T11:44:33;5.80;;;2.15;;
60233;SDS011;49514;43.538;-5.708;2023-03-01T12:04:05;3.83;;;2.30;;
60233;SDS011;49514;43.538;-5.708;2023-03-01T12:09:41;9.65;;;4.47;;
60233;SDS011;49514;43.538;-5.708;2023-03-01T14:28:58;1.80;;;0.70;;
60233;SDS011;49514;43.538;-5.708;2023-03-01T14:34:05;1.43;;;0.60;;
60233;SDS011;49514;43.538;-5.708;2023-03-01T14:36:33;1.23;;;0.50;;
60233;SDS011;49514;43.538;-5.708;2023-03-01T15:06:39;1.02;;;0.30;;
60233;SDS011;49514;43.538;-5.708;2023-03-01T15:09:11;0.63;;;0.60;;
60233;SDS011;49514;43.538;-5.708;2023-03-01T15:11:41;10.33;;;1.77;;
60233;SDS011;49514;43.538;-5.708;2023-03-01T15:17:30;5.10;;;1.07;;
60233;SDS011;49514;43.538;-5.708;2023-03-01T15:20:03;12.07;;;1.23;;
60233;SDS011;49514;43.538;-5.708;2023-03-01T15:22:33;8.10;;;1.48;;
60233;SDS011;49514;43.538;-5.708;2023-03-01T15:25:01;7.25;;;1.30;;
60233;SDS011;49514;43.538;-5.708;2023-03-01T15:27:28;14.25;;;1.30;;
60233;SDS011;49514;43.538;-5.708;2023-03-01T15:30:00;15.50;;;2.03;;
60233;SDS011;49514;43.538;-5.708;2023-03-01T15:32:33;7.93;;;1.42;;
60233;SDS011;49514;43.538;-5.708;2023-03-01T15:38:27;1.60;;;1.00;;
60233;SDS011;49514;43.538;-5.708;2023-03-01T15:41:02;2.20;;;0.90;;
60233;SDS011;49514;43.538;-5.708;2023-03-01T15:43:41;2.17;;;0.60;;
60233;SDS011;49514;43.538;-5.708;2023-03-01T15:46:20;4.13;;;0.60;;
60233;SDS011;49514;43.538;-5.708;2023-03-01T15:48:52;2.13;;;0.90;;
60233;SDS011;49514;43.538;-5.708;2023-03-01T15:51:26;3.80;;;1.00;;
60233;SDS011;49514;43.538;-5.708;2023-03-01T15:54:04;5.10;;;1.00;;
60233;SDS011;49514;43.538;-5.708;2023-03-01T15:56:35;2.08;;;0.95;;
60233;SDS011;49514;43.538;-5.708;2023-03-01T15:59:01;5.07;;;0.80;;
60233;SDS011;49514;43.538;-5.708;2023-03-01T16:01:29;1.52;;;1.00;;
60233;SDS011;49514;43.538;-5.708;2023-03-01T16:03:56;2.25;;;0.70;;
60233;SDS011;49514;43.538;-5.708;2023-03-01T16:06:24;1.40;;;0.80;;
60233;SDS011;49514;43.538;-5.708;2023-03-01T16:08:51;2.22;;;0.80;;
60233;SDS011;49514;43.538;-5.708;2023-03-01T16:11:19;0.80;;;0.60;;
60233;SDS011;49514;43.538;-5.708;2023-03-01T16:13:46;4.10;;;0.65;;
60233;SDS011;49514;43.538;-5.708;2023-03-01T16:16:14;0.90;;;0.60;;
60233;SDS011;49514;43.538;-5.708;2023-03-01T16:18:43;1.60;;;0.88;;
60233;SDS011;49514;43.538;-5.708;2023-03-01T16:21:11;1.75;;;0.82;;
60233;SDS011;49514;43.538;-5.708;2023-03-01T16:23:49;2.05;;;0.90;;
60233;SDS011;49514;43.538;-5.708;2023-03-01T16:28:44;3.30;;;1.10;;
60233;SDS011;49514;43.538;-5.708;2023-03-01T16:31:12;3.55;;;1.10;;
60233;SDS011;49514;43.538;-5.708;2023-03-01T16:43:40;1.85;;;0.75;;
60233;SDS011;49514;43.538;-5.708;2023-03-01T16:46:11;2.63;;;0.93;;
60233;SDS011;49514;43.538;-5.708;2023-03-01T16:56:10;3.25;;;0.90;;
60233;SDS011;49514;43.538;-5.708;2023-03-01T16:58:38;1.83;;;0.70;;
60233;SDS011;49514;43.538;-5.708;2023-03-01T17:01:07;1.15;;;0.57;;
60233;SDS011;49514;43.538;-5.708;2023-03-01T17:03:37;1.00;;;0.50;;
60233;SDS011;49514;43.538;-5.708;2023-03-01T17:06:06;0.85;;;0.50;;
60233;SDS011;49514;43.538;-5.708;2023-03-01T17:08:38;2.70;;;0.52;;
60233;SDS011;49514;43.538;-5.708;2023-03-01T17:11:06;3.30;;;0.70;;
60233;SDS011;49514;43.538;-5.708;2023-03-01T17:13:37;0.75;;;0.40;;
60233;SDS011;49514;43.538;-5.708;2023-03-01T17:16:05;0.80;;;0.52;;
60233;SDS011;49514;43.538;-5.708;2023-03-01T17:18:34;0.55;;;0.55;;
60233;SDS011;49514;43.538;-5.708;2023-03-01T17:21:01;0.80;;;0.50;;
60233;SDS011;49514;43.538;-5.708;2023-03-01T17:23:28;0.90;;;0.40;;
60233;SDS011;49514;43.538;-5.708;2023-03-01T17:25:56;0.90;;;0.77;;
60233;SDS011;49514;43.538;-5.708;2023-03-01T17:28:25;1.58;;;0.90;;
60233;SDS011;49514;43.538;-5.708;2023-03-01T17:30:53;1.50;;;1.10;;
60233;SDS011;49514;43.538;-5.708;2023-03-01T17:33:20;4.13;;;1.20;;
60233;SDS011;49514;43.538;-5.708;2023-03-01T17:35:48;2.45;;;1.30;;
60233;SDS011;49514;43.538;-5.708;2023-03-01T17:38:16;4.63;;;1.40;;
60233;SDS011;49514;43.538;-5.708;2023-03-01T17:40:43;5.68;;;1.33;;
60233;SDS011;49514;43.538;-5.708;2023-03-01T17:43:12;6.10;;;1.33;;
60233;SDS011;49514;43.538;-5.708;2023-03-01T17:45:40;2.50;;;1.40;;
60233;SDS011;49514;43.538;-5.708;2023-03-01T17:48:12;2.65;;;1.00;;
60233;SDS011;49514;43.538;-5.708;2023-03-01T17:50:40;2.47;;;1.13;;
60233;SDS011;49514;43.538;-5.708;2023-03-01T17:53:07;2.88;;;1.70;;
60233;SDS011;49514;43.538;-5.708;2023-03-01T17:55:35;6.20;;;1.63;;
60233;SDS011;49514;43.538;-5.708;2023-03-01T17:58:03;3.45;;;1.50;;
60233;SDS011;49514;43.538;-5.708;2023-03-01T18:00:31;3.75;;;1.50;;
60233;SDS011;49514;43.538;-5.708;2023-03-01T18:02:59;2.25;;;1.00;;
60233;SDS011;49514;43.538;-5.708;2023-03-01T18:05:30;3.42;;;1.02;;
60233;SDS011;49514;43.538;-5.708;2023-03-01T18:07:57;4.55;;;1.10;;
60233;SDS011;49514;43.538;-5.708;2023-03-01T18:10:25;5.00;;;2.60;;
60233;SDS011;49514;43.538;-5.708;2023-03-01T18:12:51;7.05;;;2.42;;
60233;SDS011;49514;43.538;-5.708;2023-03-01T18:15:19;6.93;;;2.20;;
60233;SDS011;49514;43.538;-5.708;2023-03-01T18:17:46;9.57;;;2.97;;
60233;SDS011;49514;43.538;-5.708;2023-03-01T18:20:13;6.85;;;2.97;;
60233;SDS011;49514;43.538;-5.708;2023-03-01T18:22:40;7.38;;;2.60;;
60233;SDS011;49514;43.538;-5.708;2023-03-01T18:25:07;4.30;;;1.60;;
60233;SDS011;49514;43.538;-5.708;2023-03-01T18:27:34;3.78;;;1.70;;
60233;SDS011;49514;43.538;-5.708;2023-03-01T18:30:03;4.28;;;2.08;;
60233;SDS011;49514;43.538;-5.708;2023-03-01T18:32:31;7.03;;;2.70;;
60233;SDS011;49514;43.538;-5.708;2023-03-01T18:34:58;5.65;;;2.58;;
60233;SDS011;49514;43.538;-5.708;2023-03-01T18:37:25;4.05;;;1.85;;
60233;SDS011;49514;43.538;-5.708;2023-03-01T18:39:52;4.00;;;1.45;;
60233;SDS011;49514;43.538;-5.708;2023-03-01T18:42:19;4.93;;;1.35;;
60233;SDS011;49514;43.538;-5.708;2023-03-01T18:44:47;4.60;;;1.30;;
60233;SDS011;49514;43.538;-5.708;2023-03-01T18:47:14;2.50;;;1.42;;
60233;SDS011;49514;43.538;-5.708;2023-03-01T18:49:41;5.82;;;1.90;;
60233;SDS011;49514;43.538;-5.708;2023-03-01T18:52:08;2.75;;;1.60;;
60233;SDS011;49514;43.538;-5.708;2023-03-01T18:54:36;4.03;;;1.70;;
60233;SDS011;49514;43.538;-5.708;2023-03-01T18:57:02;2.08;;;1.30;;
60233;SDS011;49514;43.538;-5.708;2023-03-01T18:59:29;2.55;;;1.52;;
60233;SDS011;49514;43.538;-5.708;2023-03-01T19:01:56;3.65;;;1.50;;
60233;SDS011;49514;43.538;-5.708;2023-03-01T19:04:23;1.67;;;1.23;;
60233;SDS011;49514;43.538;-5.708;2023-03-01T19:06:50;2.05;;;1.48;;
60233;SDS011;49514;43.538;-5.708;2023-03-01T19:09:16;2.33;;;1.45;;
60233;SDS011;49514;43.538;-5.708;2023-03-01T19:11:43;2.83;;;1.10;;
60233;SDS011;49514;43.538;-5.708;2023-03-01T19:14:10;1.98;;;1.15;;
60233;SDS011;49514;43.538;-5.708;2023-03-01T19:16:37;1.30;;;1.13;;
60233;SDS011;49514;43.538;-5.708;2023-03-01T19:19:04;1.70;;;1.30;;
60233;SDS011;49514;43.538;-5.708;2023-03-01T19:21:33;1.35;;;1.00;;